sensor_id;sensor_type;location;lat;lon;timestamp;P1;durP1;ratioP1;P2;durP2;ratioP2
31438;SDS011;18062;48.872;9.220;2022-08-21T00:02:16;342.80;;;323.80;;
31438;SDS011;18062;48.872;9.220;2022-08-21T00:04:43;366.83;;;347.57;;
31438;SDS011;18062;48.872;9.220;2022-08-21T00:07:09;371.47;;;351.50;;
31438;SDS011;18062;48.872;9.220;2022-08-21T00:09:35;371.87;;;351.83;;
31438;SDS011;18062;48.872;9.220;2022-08-21T00:12:01;367.53;;;348.33;;
31438;SDS011;18062;48.872;9.220;2022-08-21T00:14:28;380.00;;;360.87;;
31438;SDS011;18062;48.872;9.220;2022-08-21T00:16:54;345.63;;;327.17;;
31438;SDS011;18062;48.872;9.220;2022-08-21T00:19:20;404.90;;;382.70;;
31438;SDS011;18062;48.872;9.220;2022-08-21T00:21:49;410.03;;;388.17;;
31438;SDS011;18062;48.872;9.220;2022-08-21T00:24:16;414.40;;;391.60;;
31438;SDS011;18062;48.872;9.220;2022-08-21T00:26:42;428.17;;;404.60;;
31438;SDS011;18062;48.872;9.220;2022-08-21T00:29:08;395.73;;;374.87;;
31438;SDS011;18062;48.872;9.220;2022-08-21T00:31:34;369.63;;;350.63;;
31438;SDS011;18062;48.872;9.220;2022-08-21T00:34:00;417.10;;;394.83;;
31438;SDS011;18062;48.872;9.220;2022-08-21T00:36:27;418.37;;;395.90;;
31438;SDS011;18062;48.872;9.220;2022-08-21T00:38:53;424.90;;;402.17;;
31438;SDS011;18062;48.872;9.220;2022-08-21T00:41:19;408.33;;;387.30;;
31438;SDS011;18062;48.872;9.220;2022-08-21T00:43:45;421.00;;;398.77;;
31438;SDS011;18062;48.872;9.220;2022-08-21T00:46:11;437.57;;;413.53;;
31438;SDS011;18062;48.872;9.220;2022-08-21T00:48:37;453.63;;;428.87;;
31438;SDS011;18062;48.872;9.220;2022-08-21T00:51:05;440.33;;;417.33;;
31438;SDS011;18062;48.872;9.220;2022-08-21T00:53:32;399.03;;;378.43;;
31438;SDS011;18062;48.872;9.220;2022-08-21T00:55:59;472.93;;;447.80;;
31438;SDS011;18062;48.872;9.220;2022-08-21T00:58:27;456.20;;;430.47;;
31438;SDS011;18062;48.872;9.220;2022-08-21T01:00:53;461.97;;;435.93;;
31438;SDS011;18062;48.872;9.220;2022-08-21T01:03:21;485.20;;;458.67;;
31438;SDS011;18062;48.872;9.220;2022-08-21T01:05:47;451.97;;;427.67;;
31438;SDS011;18062;48.872;9.220;2022-08-21T01:08:13;451.90;;;428.20;;
31438;SDS011;18062;48.872;9.220;2022-08-21T01:10:41;466.90;;;441.30;;
31438;SDS011;18062;48.872;9.220;2022-08-21T01:13:08;472.40;;;445.50;;
31438;SDS011;18062;48.872;9.220;2022-08-21T01:15:36;469.67;;;445.27;;
31438;SDS011;18062;48.872;9.220;2022-08-21T01:18:04;435.03;;;412.50;;
31438;SDS011;18062;48.872;9.220;2022-08-21T01:20:31;466.23;;;440.60;;
31438;SDS011;18062;48.872;9.220;2022-08-21T01:22:57;456.27;;;432.90;;
31438;SDS011;18062;48.872;9.220;2022-08-21T01:25:23;441.90;;;418.37;;
31438;SDS011;18062;48.872;9.220;2022-08-21T01:27:49;485.30;;;459.90;;
31438;SDS011;18062;48.872;9.220;2022-08-21T01:30:18;452.13;;;427.83;;
31438;SDS011;18062;48.872;9.220;2022-08-21T01:32:45;475.27;;;449.97;;
31438;SDS011;18062;48.872;9.220;2022-08-21T01:35:13;442.73;;;419.37;;
31438;SDS011;18062;48.872;9.220;2022-08-21T01:37:40;493.90;;;467.97;;
31438;SDS011;18062;48.872;9.220;2022-08-21T01:40:06;472.10;;;446.73;;
31438;SDS011;18062;48.872;9.220;2022-08-21T01:42:33;392.63;;;371.63;;
31438;SDS011;18062;48.872;9.220;2022-08-21T01:44:59;441.73;;;418.17;;
31438;SDS011;18062;48.872;9.220;2022-08-21T01:47:25;425.20;;;402.23;;
31438;SDS011;18062;48.872;9.220;2022-08-21T01:49:51;403.77;;;382.70;;
31438;SDS011;18062;48.872;9.220;2022-08-21T01:52:17;425.60;;;404.03;;
31438;SDS011;18062;48.872;9.220;2022-08-21T01:54:44;433.23;;;410.47;;
31438;SDS011;18062;48.872;9.220;2022-08-21T01:57:10;416.13;;;393.87;;
31438;SDS011;18062;48.872;9.220;2022-08-21T01:59:37;414.70;;;392.53;;
31438;SDS011;18062;48.872;9.220;2022-08-21T02:02:04;456.13;;;432.10;;
31438;SDS011;18062;48.872;9.220;2022-08-21T02:04:30;423.00;;;400.13;;
31438;SDS011;18062;48.872;9.220;2022-08-21T02:06:56;435.13;;;411.43;;
31438;SDS011;18062;48.872;9.220;2022-08-21T02:09:23;459.40;;;434.57;;
31438;SDS011;18062;48.872;9.220;2022-08-21T02:11:49;485.10;;;459.13;;
31438;SDS011;18062;48.872;9.220;2022-08-21T02:14:15;452.77;;;428.33;;
31438;SDS011;18062;48.872;9.220;2022-08-21T02:16:41;474.27;;;449.90;;
31438;SDS011;18062;48.872;9.220;2022-08-21T02:19:08;498.93;;;471.10;;
31438;SDS011;18062;48.872;9.220;2022-08-21T02:21:34;477.00;;;451.53;;
31438;SDS011;18062;48.872;9.220;2022-08-21T02:24:00;486.30;;;459.83;;
31438;SDS011;18062;48.872;9.220;2022-08-21T02:26:26;484.87;;;458.80;;
31438;SDS011;18062;48.872;9.220;2022-08-21T02:28:53;462.17;;;437.87;;
31438;SDS011;18062;48.872;9.220;2022-08-21T02:31:19;474.13;;;449.00;;
31438;SDS011;18062;48.872;9.220;2022-08-21T02:33:45;451.97;;;427.33;;
31438;SDS011;18062;48.872;9.220;2022-08-21T02:36:11;494.87;;;468.70;;
31438;SDS011;18062;48.872;9.220;2022-08-21T02:38:38;487.67;;;461.03;;
31438;SDS011;18062;48.872;9.220;2022-08-21T02:41:09;497.23;;;469.00;;
31438;SDS011;18062;48.872;9.220;2022-08-21T02:43:35;510.60;;;482.37;;
31438;SDS011;18062;48.872;9.220;2022-08-21T02:46:02;516.13;;;488.93;;
31438;SDS011;18062;48.872;9.220;2022-08-21T02:48:29;484.50;;;458.20;;
31438;SDS011;18062;48.872;9.220;2022-08-21T02:51:00;482.40;;;457.03;;
31438;SDS011;18062;48.872;9.220;2022-08-21T02:53:27;478.83;;;453.70;;
31438;SDS011;18062;48.872;9.220;2022-08-21T02:55:53;504.23;;;477.23;;
31438;SDS011;18062;48.872;9.220;2022-08-21T02:58:22;462.60;;;438.13;;
31438;SDS011;18062;48.872;9.220;2022-08-21T03:00:48;483.70;;;457.30;;
31438;SDS011;18062;48.872;9.220;2022-08-21T03:03:15;464.63;;;439.60;;
31438;SDS011;18062;48.872;9.220;2022-08-21T03:05:42;484.50;;;457.80;;
31438;SDS011;18062;48.872;9.220;2022-08-21T03:08:09;500.07;;;472.53;;
31438;SDS011;18062;48.872;9.220;2022-08-21T03:10:36;475.27;;;450.17;;
31438;SDS011;18062;48.872;9.220;2022-08-21T03:13:02;489.43;;;462.67;;
31438;SDS011;18062;48.872;9.220;2022-08-21T03:15:29;509.73;;;481.47;;
31438;SDS011;18062;48.872;9.220;2022-08-21T03:17:55;500.40;;;473.53;;
31438;SDS011;18062;48.872;9.220;2022-08-21T03:20:23;489.23;;;460.97;;
31438;SDS011;18062;48.872;9.220;2022-08-21T03:22:50;449.53;;;425.73;;
31438;SDS011;18062;48.872;9.220;2022-08-21T03:25:16;506.40;;;479.77;;
31438;SDS011;18062;48.872;9.220;2022-08-21T03:27:43;451.30;;;427.30;;
31438;SDS011;18062;48.872;9.220;2022-08-21T03:30:09;504.80;;;476.47;;
31438;SDS011;18062;48.872;9.220;2022-08-21T03:32:35;482.63;;;456.00;;
31438;SDS011;18062;48.872;9.220;2022-08-21T03:35:02;479.70;;;454.03;;
31438;SDS011;18062;48.872;9.220;2022-08-21T03:37:28;447.80;;;423.93;;
31438;SDS011;18062;48.872;9.220;2022-08-21T03:39:54;497.97;;;471.83;;
31438;SDS011;18062;48.872;9.220;2022-08-21T03:42:20;493.57;;;466.80;;
31438;SDS011;18062;48.872;9.220;2022-08-21T03:44:46;512.00;;;483.93;;
31438;SDS011;18062;48.872;9.220;2022-08-21T03:47:12;495.70;;;468.90;;
31438;SDS011;18062;48.872;9.220;2022-08-21T03:49:38;507.27;;;479.73;;
31438;SDS011;18062;48.872;9.220;2022-08-21T03:52:04;496.30;;;469.67;;
31438;SDS011;18062;48.872;9.220;2022-08-21T03:54:30;469.07;;;444.53;;
31438;SDS011;18062;48.872;9.220;2022-08-21T03:56:57;493.83;;;467.27;;
31438;SDS011;18062;48.872;9.220;2022-08-21T03:59:23;505.67;;;479.07;;
31438;SDS011;18062;48.872;9.220;2022-08-21T04:01:56;476.20;;;450.80;;
31438;SDS011;18062;48.872;9.220;2022-08-21T04:04:22;473.10;;;447.20;;
31438;SDS011;18062;48.872;9.220;2022-08-21T04:06:48;502.53;;;474.50;;
31438;SDS011;18062;48.872;9.220;2022-08-21T04:09:15;470.13;;;444.60;;
31438;SDS011;18062;48.872;9.220;2022-08-21T04:11:41;447.77;;;423.33;;
31438;SDS011;18062;48.872;9.220;2022-08-21T04:14:07;448.47;;;425.07;;
31438;SDS011;18062;48.872;9.220;2022-08-21T04:16:33;475.07;;;450.20;;
31438;SDS011;18062;48.872;9.220;2022-08-21T04:18:59;474.40;;;449.03;;
31438;SDS011;18062;48.872;9.220;2022-08-21T04:21:25;493.00;;;466.77;;
31438;SDS011;18062;48.872;9.220;2022-08-21T04:23:51;475.90;;;449.03;;
31438;SDS011;18062;48.872;9.220;2022-08-21T04:26:19;480.40;;;454.00;;
31438;SDS011;18062;48.872;9.220;2022-08-21T04:28:45;484.07;;;459.07;;
31438;SDS011;18062;48.872;9.220;2022-08-21T04:31:11;480.33;;;454.27;;
31438;SDS011;18062;48.872;9.220;2022-08-21T04:33:37;494.83;;;468.47;;
31438;SDS011;18062;48.872;9.220;2022-08-21T04:36:03;486.70;;;461.03;;
31438;SDS011;18062;48.872;9.220;2022-08-21T04:38:29;491.07;;;465.03;;
31438;SDS011;18062;48.872;9.220;2022-08-21T04:40:56;475.13;;;448.80;;
31438;SDS011;18062;48.872;9.220;2022-08-21T04:43:22;463.10;;;438.07;;
31438;SDS011;18062;48.872;9.220;2022-08-21T04:45:50;446.03;;;420.90;;
31438;SDS011;18062;48.872;9.220;2022-08-21T04:48:20;456.23;;;432.33;;
31438;SDS011;18062;48.872;9.220;2022-08-21T04:55:51;454.00;;;430.30;;
31438;SDS011;18062;48.872;9.220;2022-08-21T04:58:19;461.27;;;436.30;;
31438;SDS011;18062;48.872;9.220;2022-08-21T05:00:46;491.83;;;465.77;;
31438;SDS011;18062;48.872;9.220;2022-08-21T05:03:12;460.27;;;434.50;;
31438;SDS011;18062;48.872;9.220;2022-08-21T05:05:40;477.33;;;451.63;;
31438;SDS011;18062;48.872;9.220;2022-08-21T05:08:06;438.33;;;414.93;;
31438;SDS011;18062;48.872;9.220;2022-08-21T05:10:32;437.00;;;414.33;;
31438;SDS011;18062;48.872;9.220;2022-08-21T05:12:59;444.97;;;422.60;;
31438;SDS011;18062;48.872;9.220;2022-08-21T05:15:26;433.27;;;410.27;;
31438;SDS011;18062;48.872;9.220;2022-08-21T05:17:52;405.77;;;384.73;;
31438;SDS011;18062;48.872;9.220;2022-08-21T05:20:18;398.97;;;378.37;;
31438;SDS011;18062;48.872;9.220;2022-08-21T05:22:44;407.93;;;386.30;;
31438;SDS011;18062;48.872;9.220;2022-08-21T05:25:11;369.07;;;350.10;;
31438;SDS011;18062;48.872;9.220;2022-08-21T05:27:37;402.43;;;380.47;;
31438;SDS011;18062;48.872;9.220;2022-08-21T05:30:04;355.23;;;337.00;;
31438;SDS011;18062;48.872;9.220;2022-08-21T05:32:30;343.23;;;325.27;;
31438;SDS011;18062;48.872;9.220;2022-08-21T05:34:56;359.50;;;339.43;;
31438;SDS011;18062;48.872;9.220;2022-08-21T05:37:22;347.60;;;329.47;;
31438;SDS011;18062;48.872;9.220;2022-08-21T05:39:48;319.43;;;303.60;;
31438;SDS011;18062;48.872;9.220;2022-08-21T05:42:14;294.50;;;279.67;;
31438;SDS011;18062;48.872;9.220;2022-08-21T05:44:40;292.13;;;277.77;;
31438;SDS011;18062;48.872;9.220;2022-08-21T05:47:07;290.17;;;275.23;;
31438;SDS011;18062;48.872;9.220;2022-08-21T05:49:33;270.20;;;255.97;;
31438;SDS011;18062;48.872;9.220;2022-08-21T05:51:59;270.80;;;256.77;;
31438;SDS011;18062;48.872;9.220;2022-08-21T05:54:25;268.40;;;254.37;;
31438;SDS011;18062;48.872;9.220;2022-08-21T05:56:51;227.90;;;216.43;;
31438;SDS011;18062;48.872;9.220;2022-08-21T05:59:17;230.63;;;218.60;;
31438;SDS011;18062;48.872;9.220;2022-08-21T06:01:43;211.77;;;200.93;;
31438;SDS011;18062;48.872;9.220;2022-08-21T06:04:10;235.20;;;222.90;;
31438;SDS011;18062;48.872;9.220;2022-08-21T06:06:36;209.93;;;199.70;;
31438;SDS011;18062;48.872;9.220;2022-08-21T06:09:03;198.20;;;187.40;;
31438;SDS011;18062;48.872;9.220;2022-08-21T06:11:29;177.07;;;167.43;;
31438;SDS011;18062;48.872;9.220;2022-08-21T06:13:55;177.27;;;167.53;;
31438;SDS011;18062;48.872;9.220;2022-08-21T06:16:21;167.60;;;158.17;;
31438;SDS011;18062;48.872;9.220;2022-08-21T06:18:47;126.43;;;119.73;;
31438;SDS011;18062;48.872;9.220;2022-08-21T06:21:13;145.37;;;137.40;;
31438;SDS011;18062;48.872;9.220;2022-08-21T06:23:40;144.00;;;136.57;;
31438;SDS011;18062;48.872;9.220;2022-08-21T06:26:06;107.73;;;102.07;;
31438;SDS011;18062;48.872;9.220;2022-08-21T06:28:33;103.33;;;97.93;;
31438;SDS011;18062;48.872;9.220;2022-08-21T06:30:59;103.03;;;97.63;;
